createdAt,value
2023-01-15T00:02:17.959Z,3.47
2023-01-15T00:04:44.540Z,3.72
2023-01-15T00:07:11.003Z,2.15
2023-01-15T00:09:37.517Z,4.20
2023-01-15T00:12:04.286Z,3.78
2023-01-15T00:14:30.711Z,2.50
2023-01-15T00:16:57.062Z,4.32
2023-01-15T00:19:23.446Z,3.88
2023-01-15T00:21:49.867Z,2.55
2023-01-15T00:24:34.675Z,2.83
2023-01-15T00:27:19.543Z,2.58
2023-01-15T00:29:46.033Z,4.03
2023-01-15T00:32:12.472Z,4.40
2023-01-15T00:34:38.849Z,2.80
2023-01-15T00:37:05.407Z,2.55
2023-01-15T00:39:31.799Z,3.95
2023-01-15T00:41:58.179Z,4.30
2023-01-15T00:44:24.598Z,3.10
2023-01-15T00:46:51.137Z,2.53
2023-01-15T00:49:17.783Z,3.40
2023-01-15T00:51:44.430Z,4.95
2023-01-15T00:54:11.009Z,4.25
2023-01-15T00:56:37.432Z,3.10
2023-01-15T00:59:04.780Z,4.22
2023-01-15T01:01:31.617Z,3.67
2023-01-15T01:03:58.215Z,2.50
2023-01-15T01:06:25.468Z,5.60
2023-01-15T01:08:51.967Z,2.63
2023-01-15T01:11:23.869Z,3.17
2023-01-15T01:13:50.269Z,2.92
2023-01-15T01:16:26.134Z,2.95
2023-01-15T01:18:53.847Z,3.03
2023-01-15T01:21:20.294Z,3.63
2023-01-15T01:23:47.553Z,3.53
2023-01-15T01:26:14.090Z,3.05
2023-01-15T01:28:41.481Z,3.72
2023-01-15T01:31:09.239Z,3.72
2023-01-15T01:33:36.290Z,3.10
2023-01-15T01:36:03.023Z,2.47
2023-01-15T01:38:29.554Z,3.78
2023-01-15T01:40:56.013Z,1.90
2023-01-15T01:43:27.760Z,1.85
2023-01-15T01:45:54.377Z,3.80
2023-01-15T01:48:30.803Z,1.60
2023-01-15T01:51:01.793Z,1.67
2023-01-15T01:53:31.355Z,4.85
2023-01-15T01:56:00.006Z,1.92
2023-01-15T01:58:29.756Z,1.65
2023-01-15T02:00:57.020Z,1.35
2023-01-15T02:03:30.171Z,2.45
2023-01-15T02:05:59.930Z,2.40
2023-01-15T02:08:26.455Z,1.23
2023-01-15T02:10:55.727Z,1.70
2023-01-15T02:13:39.204Z,1.92
2023-01-15T02:16:32.664Z,4.45
2023-01-15T02:19:14.664Z,2.03
2023-01-15T02:22:05.138Z,3.22
2023-01-15T02:24:54.746Z,3.40
2023-01-15T02:27:24.804Z,1.83
2023-01-15T02:30:12.714Z,3.10
2023-01-15T02:32:44.102Z,2.35
2023-01-15T02:35:23.248Z,2.47
2023-01-15T02:37:57.643Z,2.63
2023-01-15T02:40:26.542Z,3.58
2023-01-15T02:42:55.234Z,3.28
2023-01-15T02:45:32.057Z,3.88
2023-01-15T02:48:05.930Z,5.90
2023-01-15T02:50:38.448Z,2.38
2023-01-15T02:53:09.644Z,3.85
2023-01-15T02:58:10.873Z,2.92
2023-01-15T03:00:42.027Z,2.92
2023-01-15T03:03:21.106Z,2.60
2023-01-15T03:06:10.800Z,3.00
2023-01-15T03:08:37.726Z,2.42
2023-01-15T03:11:07.123Z,2.72
2023-01-15T03:13:42.663Z,2.67
2023-01-15T03:16:37.917Z,2.58
2023-01-15T03:19:26.843Z,4.93
2023-01-15T03:22:04.917Z,4.57
2023-01-15T03:24:47.195Z,2.83
2023-01-15T03:27:14.278Z,3.45
2023-01-15T03:29:47.131Z,3.65
2023-01-15T03:32:15.333Z,2.78
2023-01-15T03:34:48.942Z,2.28
2023-01-15T03:37:15.823Z,2.90
2023-01-15T03:39:42.939Z,3.10
2023-01-15T03:42:19.930Z,3.95
2023-01-15T03:44:55.233Z,3.95
2023-01-15T03:47:55.525Z,2.88
2023-01-15T03:50:32.138Z,2.22
2023-01-15T03:53:20.289Z,2.60
2023-01-15T03:56:08.569Z,3.22
2023-01-15T03:58:56.561Z,1.50
2023-01-15T04:01:29.300Z,1.75
2023-01-15T04:03:56.801Z,1.67
2023-01-15T04:06:26.381Z,2.30
2023-01-15T04:08:54.213Z,2.63
2023-01-15T04:11:25.544Z,2.30
2023-01-15T04:13:52.066Z,1.75
2023-01-15T04:16:27.630Z,1.73
2023-01-15T04:18:54.442Z,3.22
2023-01-15T04:21:21.763Z,3.22
2023-01-15T04:23:48.307Z,1.75
2023-01-15T04:26:15.213Z,4.97
2023-01-15T04:28:42.150Z,2.60
2023-01-15T04:31:08.815Z,2.80
2023-01-15T04:33:35.307Z,2.10
2023-01-15T04:36:03.715Z,2.42
2023-01-15T04:38:30.560Z,2.65
2023-01-15T04:41:20.469Z,1.67
2023-01-15T04:44:05.135Z,1.15
2023-01-15T04:46:32.518Z,2.17
2023-01-15T04:48:59.002Z,1.60
2023-01-15T04:51:25.465Z,2.35
2023-01-15T04:53:51.952Z,2.38
2023-01-15T04:56:18.359Z,2.22
2023-01-15T04:58:44.738Z,3.85
2023-01-15T05:01:16.936Z,1.92
2023-01-15T05:03:43.717Z,3.65
2023-01-15T05:06:10.619Z,3.08
2023-01-15T05:08:37.015Z,2.22
2023-01-15T05:11:06.292Z,6.57
2023-01-15T05:13:33.892Z,6.45
2023-01-15T05:16:18.284Z,4.22
2023-01-15T05:18:46.034Z,4.43
2023-01-15T05:21:24.593Z,2.05
2023-01-15T05:23:52.844Z,2.38
2023-01-15T05:26:20.957Z,2.75
2023-01-15T05:28:47.974Z,3.80
2023-01-15T05:31:17.351Z,4.50
2023-01-15T05:33:44.821Z,2.53
2023-01-15T05:36:17.113Z,2.72
2023-01-15T05:38:43.799Z,3.25
2023-01-15T05:41:35.437Z,2.78
2023-01-15T05:44:04.873Z,5.70
2023-01-15T05:46:31.485Z,3.15
2023-01-15T05:49:02.232Z,4.55
2023-01-15T05:51:29.379Z,3.38
2023-01-15T05:53:57.549Z,3.42
2023-01-15T05:56:24.301Z,3.00
2023-01-15T05:58:50.694Z,3.38
2023-01-15T06:01:17.681Z,4.90
2023-01-15T06:03:44.205Z,3.28
2023-01-15T06:06:13.952Z,3.88
2023-01-15T06:08:40.861Z,4.75
2023-01-15T06:11:07.520Z,3.70
2023-01-15T06:13:35.004Z,8.40
2023-01-15T06:16:01.669Z,3.78
2023-01-15T06:18:28.107Z,2.85
2023-01-15T06:20:54.582Z,4.53
2023-01-15T06:23:20.972Z,3.97
2023-01-15T06:25:47.571Z,4.72
2023-01-15T06:28:14.007Z,3.28
2023-01-15T06:30:40.490Z,4.88
2023-01-15T06:33:07.543Z,3.95
2023-01-15T06:35:35.057Z,3.53
2023-01-15T06:38:01.466Z,4.30
2023-01-15T06:40:28.897Z,3.00
2023-01-15T06:43:17.228Z,3.70
2023-01-15T06:46:02.519Z,2.65
2023-01-15T06:48:29.061Z,2.85
2023-01-15T06:50:55.611Z,3.40
2023-01-15T06:53:22.545Z,4.38
2023-01-15T06:55:49.089Z,3.30
2023-01-15T06:58:15.523Z,2.78
2023-01-15T07:00:43.349Z,3.80
2023-01-15T07:03:09.786Z,4.05
2023-01-15T07:05:42.164Z,2.50
2023-01-15T07:08:08.664Z,2.38
2023-01-15T07:10:35.647Z,3.05
2023-01-15T07:13:02.147Z,5.30
2023-01-15T07:15:28.965Z,2.25
2023-01-15T07:17:56.164Z,1.98
2023-01-15T07:20:22.703Z,1.60
2023-01-15T07:22:50.467Z,2.55
2023-01-15T07:25:17.071Z,2.60
2023-01-15T07:27:45.700Z,3.05
2023-01-15T07:30:12.555Z,2.85
2023-01-15T07:32:38.995Z,3.45
2023-01-15T07:35:05.822Z,1.90
2023-01-15T07:37:32.198Z,2.42
2023-01-15T07:39:58.631Z,1.50
2023-01-15T07:42:43.478Z,1.95
2023-01-15T07:45:29.335Z,3.00
2023-01-15T07:48:14.121Z,3.83
2023-01-15T07:50:40.550Z,4.07
2023-01-15T07:53:08.041Z,2.30
2023-01-15T07:55:35.949Z,2.70
2023-01-15T07:58:03.266Z,2.92
2023-01-15T08:00:30.698Z,4.28
2023-01-15T08:02:57.128Z,10.05
2023-01-15T08:05:23.575Z,3.88
2023-01-15T08:07:50.440Z,5.05
2023-01-15T08:10:17.064Z,2.70
2023-01-15T08:13:02.343Z,3.80
2023-01-15T08:15:33.371Z,2.58
2023-01-15T08:17:59.825Z,2.10
2023-01-15T08:20:27.000Z,3.35
2023-01-15T08:22:53.697Z,4.25
2023-01-15T08:25:23.202Z,4.28
2023-01-15T08:27:50.092Z,3.10
2023-01-15T08:30:20.178Z,4.60
2023-01-15T08:32:47.243Z,2.78
2023-01-15T08:35:13.900Z,2.08
2023-01-15T08:37:41.336Z,3.78
2023-01-15T08:40:09.061Z,2.38
2023-01-15T08:42:35.597Z,4.55
2023-01-15T08:45:02.753Z,3.85
2023-01-15T08:47:29.170Z,4.80
2023-01-15T08:49:55.686Z,2.80
2023-01-15T08:52:22.122Z,3.67
2023-01-15T08:54:48.469Z,11.88
2023-01-15T08:57:15.952Z,15.60
2023-01-15T08:59:43.312Z,12.95
2023-01-15T09:02:12.468Z,11.95
2023-01-15T09:04:39.021Z,8.75
2023-01-15T09:07:05.545Z,6.07
2023-01-15T09:09:32.008Z,5.50
2023-01-15T09:11:58.343Z,4.88
2023-01-15T09:14:55.415Z,2.92
2023-01-15T09:17:11.181Z,4.32
2023-01-15T09:19:37.647Z,1.05
2023-01-15T09:22:04.103Z,0.52
2023-01-15T09:24:30.509Z,0.55
2023-01-15T09:26:56.967Z,0.60
2023-01-15T09:29:23.401Z,0.35
2023-01-15T09:31:49.752Z,1.05
2023-01-15T09:34:16.168Z,0.70
2023-01-15T09:36:43.707Z,1.92
2023-01-15T09:39:10.188Z,0.52
2023-01-15T09:42:07.144Z,1.98
2023-01-15T09:44:36.124Z,0.30
2023-01-15T09:47:24.879Z,0.30
2023-01-15T09:50:19.098Z,0.20
2023-01-15T09:52:54.601Z,1.58
2023-01-15T09:55:21.101Z,0.45
2023-01-15T09:57:51.959Z,0.57
2023-01-15T10:00:27.996Z,0.30
2023-01-15T10:03:22.453Z,0.30
2023-01-15T10:06:13.776Z,0.00
2023-01-15T10:08:43.226Z,0.00
2023-01-15T10:11:15.601Z,0.17
2023-01-15T10:13:56.190Z,0.20
2023-01-15T10:16:25.812Z,0.20
2023-01-15T10:18:53.253Z,0.20
2023-01-15T10:21:31.127Z,0.13
2023-01-15T10:23:57.508Z,0.22
2023-01-15T10:26:35.631Z,0.22
2023-01-15T10:29:09.720Z,0.10
2023-01-15T10:32:03.020Z,1.27
2023-01-15T10:34:32.447Z,0.22
2023-01-15T10:37:06.820Z,0.17
2023-01-15T10:39:48.732Z,0.10
2023-01-15T10:42:40.601Z,0.20
2023-01-15T10:45:24.284Z,0.08
2023-01-15T10:47:56.427Z,0.28
2023-01-15T10:50:25.391Z,0.30
2023-01-15T10:53:20.999Z,0.95
2023-01-15T10:55:55.329Z,0.13
2023-01-15T10:58:34.229Z,0.10
2023-01-15T11:01:05.524Z,1.10
2023-01-15T11:03:43.668Z,0.15
2023-01-15T11:06:16.344Z,0.10
2023-01-15T11:09:08.619Z,0.30
2023-01-15T11:11:59.342Z,0.10
2023-01-15T11:14:56.685Z,0.40
2023-01-15T11:18:10.880Z,0.10
2023-01-15T11:20:44.948Z,0.20
2023-01-15T11:23:15.648Z,0.10
2023-01-15T11:25:57.739Z,0.73
2023-01-15T11:28:37.763Z,0.03
2023-01-15T11:31:04.432Z,0.20
2023-01-15T11:33:32.080Z,0.45
2023-01-15T11:36:01.486Z,0.30
2023-01-15T11:38:42.895Z,0.10
2023-01-15T11:41:21.576Z,0.57
2023-01-15T11:44:17.637Z,0.30
2023-01-15T11:47:16.083Z,2.05
2023-01-15T11:50:11.045Z,0.40
2023-01-15T11:52:58.440Z,2.03
2023-01-15T11:55:27.285Z,1.15
2023-01-15T11:57:56.385Z,0.20
2023-01-15T12:00:26.067Z,0.45
2023-01-15T12:03:00.302Z,0.32
2023-01-15T12:05:30.960Z,0.43
2023-01-15T12:08:01.309Z,0.63
2023-01-15T12:10:53.260Z,0.70
2023-01-15T12:13:37.754Z,0.10
2023-01-15T12:16:22.242Z,0.10
2023-01-15T12:18:58.678Z,0.15
2023-01-15T12:21:48.542Z,0.00
2023-01-15T12:24:47.084Z,0.10
2023-01-15T12:27:30.088Z,0.20
2023-01-15T12:30:10.862Z,0.10
2023-01-15T12:32:42.056Z,0.28
2023-01-15T12:35:22.572Z,0.90
2023-01-15T12:37:57.025Z,0.17
2023-01-15T12:40:33.153Z,0.10
2023-01-15T12:43:18.080Z,0.20
2023-01-15T12:45:49.793Z,0.22
2023-01-15T12:48:22.357Z,0.17
2023-01-15T12:50:51.585Z,0.35
2023-01-15T12:53:29.964Z,0.43
2023-01-15T12:56:07.153Z,0.20
2023-01-15T12:58:45.228Z,0.43
2023-01-15T13:01:30.316Z,0.25
2023-01-15T13:04:29.203Z,0.22
2023-01-15T13:07:11.220Z,0.17
2023-01-15T13:09:41.191Z,0.40
2023-01-15T13:12:15.868Z,0.10
2023-01-15T13:14:46.234Z,0.20
2023-01-15T13:17:45.997Z,0.40
2023-01-15T13:20:27.751Z,0.73
2023-01-15T13:23:21.341Z,0.22
2023-01-15T13:25:55.618Z,0.20
2023-01-15T13:28:41.011Z,0.30
2023-01-15T13:31:19.440Z,2.33
2023-01-15T13:33:54.108Z,0.65
2023-01-15T13:36:27.985Z,0.30
2023-01-15T13:39:00.579Z,0.17
2023-01-15T13:41:49.653Z,0.80
2023-01-15T13:44:19.328Z,1.40
2023-01-15T13:46:49.062Z,0.50
2023-01-15T13:49:25.524Z,0.30
2023-01-15T13:51:53.601Z,0.40
2023-01-15T13:54:23.836Z,0.60
2023-01-15T13:56:50.255Z,0.28
2023-01-15T13:59:39.727Z,0.22
2023-01-15T14:02:26.127Z,0.10
2023-01-15T14:04:53.068Z,0.10
2023-01-15T14:07:23.594Z,0.15
2023-01-15T14:09:50.530Z,1.45
2023-01-15T14:12:39.381Z,0.82
2023-01-15T14:15:08.965Z,0.80
2023-01-15T14:18:23.393Z,1.05
2023-01-15T14:21:24.033Z,0.40
2023-01-15T14:24:15.579Z,0.20
2023-01-15T14:27:00.231Z,0.22
2023-01-15T14:30:03.359Z,0.20
2023-01-15T14:32:51.575Z,0.28
2023-01-15T14:35:23.768Z,0.40
2023-01-15T14:38:15.475Z,0.32
2023-01-15T14:40:54.471Z,0.22
2023-01-15T14:43:22.429Z,0.22
2023-01-15T14:45:50.107Z,0.30
2023-01-15T14:48:19.320Z,0.10
2023-01-15T14:50:48.800Z,2.25
2023-01-15T14:53:33.405Z,0.93
2023-01-15T14:56:12.915Z,0.20
2023-01-15T14:58:57.166Z,1.35
2023-01-15T15:01:41.969Z,0.10
2023-01-15T15:04:11.147Z,0.57
2023-01-15T15:07:02.130Z,0.98
2023-01-15T15:09:30.931Z,1.70
2023-01-15T15:12:21.306Z,0.30
2023-01-15T15:15:25.124Z,1.15
2023-01-15T15:18:22.737Z,0.73
2023-01-15T15:21:12.993Z,0.43
2023-01-15T15:23:48.559Z,0.73
2023-01-15T15:26:33.325Z,1.08
2023-01-15T15:29:00.860Z,0.50
2023-01-15T15:31:31.018Z,0.55
2023-01-15T15:33:58.814Z,0.55
2023-01-15T15:36:28.901Z,0.52
2023-01-15T15:39:01.989Z,0.95
2023-01-15T15:41:53.832Z,0.60
2023-01-15T15:45:05.359Z,1.20
2023-01-15T15:47:57.250Z,0.50
2023-01-15T15:50:35.334Z,0.80
2023-01-15T15:53:06.634Z,5.63
2023-01-15T15:58:11.631Z,1.20
2023-01-15T16:00:43.073Z,1.42
2023-01-15T16:03:20.606Z,2.53
2023-01-15T16:05:57.437Z,1.23
2023-01-15T16:08:23.815Z,2.92
2023-01-15T16:10:53.589Z,1.98
2023-01-15T16:13:27.309Z,5.25
2023-01-15T16:15:56.779Z,4.28
2023-01-15T16:18:31.346Z,7.63
2023-01-15T16:20:58.425Z,1.20
2023-01-15T16:23:28.389Z,3.10
2023-01-15T16:26:12.767Z,0.80
2023-01-15T16:28:43.607Z,4.47
2023-01-15T16:31:11.777Z,0.22
2023-01-15T16:33:38.978Z,0.85
2023-01-15T16:36:07.865Z,1.08
2023-01-15T16:38:37.766Z,1.63
2023-01-15T16:41:04.559Z,1.90
2023-01-15T16:43:31.786Z,0.90
2023-01-15T16:46:15.805Z,1.33
2023-01-15T16:48:46.878Z,1.08
2023-01-15T16:51:33.098Z,0.85
2023-01-15T16:54:05.424Z,0.68
2023-01-15T16:56:34.877Z,0.28
2023-01-15T16:59:01.582Z,0.43
2023-01-15T17:01:36.511Z,1.23
2023-01-15T17:04:04.397Z,0.40
2023-01-15T17:06:31.023Z,2.15
2023-01-15T17:08:58.913Z,1.30
2023-01-15T17:11:29.787Z,2.35
2023-01-15T17:14:30.332Z,2.05
2023-01-15T17:17:15.239Z,0.70
2023-01-15T17:19:41.652Z,1.73
2023-01-15T17:22:31.106Z,5.65
2023-01-15T17:25:00.023Z,4.20
2023-01-15T17:27:28.313Z,3.65
2023-01-15T17:29:55.460Z,3.08
2023-01-15T17:32:40.303Z,3.05
2023-01-15T17:35:18.355Z,0.30
2023-01-15T17:37:45.881Z,0.80
2023-01-15T17:40:12.616Z,1.83
2023-01-15T17:42:39.069Z,0.73
2023-01-15T17:45:06.533Z,3.75
2023-01-15T17:47:32.969Z,1.52
2023-01-15T17:49:59.503Z,3.38
2023-01-15T17:52:25.948Z,2.17
2023-01-15T17:55:11.203Z,13.57
2023-01-15T17:57:56.597Z,8.30
2023-01-15T18:00:41.952Z,3.00
2023-01-15T18:03:35.679Z,7.20
2023-01-15T18:06:02.577Z,4.05
2023-01-15T18:08:31.169Z,3.25
2023-01-15T18:10:57.587Z,2.33
2023-01-15T18:13:23.934Z,3.88
2023-01-15T18:15:50.466Z,8.02
2023-01-15T18:18:16.917Z,4.50
2023-01-15T18:20:43.332Z,4.55
2023-01-15T18:23:10.093Z,2.70
2023-01-15T18:25:36.542Z,3.13
2023-01-15T18:28:03.187Z,4.28
2023-01-15T18:30:29.724Z,5.40
2023-01-15T18:32:56.342Z,3.97
2023-01-15T18:35:23.729Z,2.08
2023-01-15T18:37:50.182Z,7.50
2023-01-15T18:40:16.635Z,1.58
2023-01-15T18:43:01.877Z,2.25
2023-01-15T18:45:46.544Z,3.03
2023-01-15T18:48:12.957Z,3.75
2023-01-15T18:50:39.400Z,2.85
2023-01-15T18:53:05.756Z,5.10
2023-01-15T18:55:34.422Z,5.00
2023-01-15T18:58:01.742Z,7.15
2023-01-15T19:00:28.315Z,6.53
2023-01-15T19:02:54.818Z,3.55
2023-01-15T19:05:21.418Z,7.40
2023-01-15T19:07:48.050Z,8.57
2023-01-15T19:10:15.960Z,3.33
2023-01-15T19:12:43.720Z,4.22
2023-01-15T19:15:31.757Z,2.53
2023-01-15T19:18:17.133Z,3.45
2023-01-15T19:20:43.544Z,1.83
2023-01-15T19:23:09.980Z,1.23
2023-01-15T19:25:44.962Z,2.03
2023-01-15T19:28:17.799Z,1.02
2023-01-15T19:31:11.486Z,1.13
2023-01-15T19:33:37.904Z,1.33
2023-01-15T19:36:04.990Z,0.82
2023-01-15T19:38:33.404Z,1.17
2023-01-15T19:41:19.749Z,1.65
2023-01-15T19:44:04.547Z,1.45
2023-01-15T19:46:49.811Z,1.95
2023-01-15T19:49:38.503Z,1.70
2023-01-15T19:52:23.903Z,1.88
2023-01-15T19:55:00.093Z,1.63
2023-01-15T19:57:26.722Z,4.18
2023-01-15T19:59:53.128Z,2.75
2023-01-15T20:02:19.679Z,1.77
2023-01-15T20:04:46.991Z,2.03
2023-01-15T20:07:13.512Z,2.13
2023-01-15T20:09:41.011Z,1.40
2023-01-15T20:12:26.005Z,1.73
2023-01-15T20:14:54.558Z,2.38
2023-01-15T20:17:21.942Z,4.03
2023-01-15T20:19:48.561Z,1.52
2023-01-15T20:22:15.828Z,1.15
2023-01-15T20:24:44.307Z,2.08
2023-01-15T20:27:12.750Z,1.15
2023-01-15T20:29:42.712Z,1.02
2023-01-15T20:32:09.624Z,1.45
2023-01-15T20:34:39.726Z,0.70
2023-01-15T20:37:07.052Z,2.17
2023-01-15T20:39:33.957Z,2.78
2023-01-15T20:42:19.165Z,1.33
2023-01-15T20:44:54.354Z,1.20
2023-01-15T20:47:45.501Z,1.13
2023-01-15T20:50:15.827Z,2.10
2023-01-15T20:52:46.579Z,2.70
2023-01-15T20:55:13.444Z,2.53
2023-01-15T20:57:40.992Z,1.92
2023-01-15T21:00:11.568Z,0.93
2023-01-15T21:02:37.986Z,4.22
2023-01-15T21:05:05.304Z,2.35
2023-01-15T21:07:31.777Z,1.52
2023-01-15T21:09:58.192Z,1.40
2023-01-15T21:12:24.633Z,4.30
2023-01-15T21:14:50.974Z,2.38
2023-01-15T21:17:17.535Z,3.88
2023-01-15T21:19:43.895Z,1.58
2023-01-15T21:22:10.297Z,1.73
2023-01-15T21:24:36.781Z,2.03
2023-01-15T21:27:03.379Z,2.45
2023-01-15T21:29:29.983Z,1.75
2023-01-15T21:31:56.523Z,2.35
2023-01-15T21:34:23.251Z,1.95
2023-01-15T21:36:49.673Z,3.50
2023-01-15T21:39:17.449Z,1.02
2023-01-15T21:42:02.321Z,1.52
2023-01-15T21:44:32.753Z,1.23
2023-01-15T21:47:05.333Z,1.92
2023-01-15T21:49:33.151Z,2.20
2023-01-15T21:52:05.305Z,2.22
2023-01-15T21:54:32.172Z,0.90
2023-01-15T21:56:59.305Z,4.35
2023-01-15T21:59:25.848Z,1.15
2023-01-15T22:01:57.248Z,0.85
2023-01-15T22:06:51.742Z,2.05
2023-01-15T22:09:18.981Z,1.98
2023-01-15T22:11:45.924Z,1.55
2023-01-15T22:14:24.129Z,1.45
2023-01-15T22:16:55.941Z,3.05
2023-01-15T22:19:25.078Z,2.38
2023-01-15T22:21:53.354Z,1.00
2023-01-15T22:24:20.214Z,0.82
2023-01-15T22:26:54.437Z,1.08
2023-01-15T22:29:26.432Z,2.10
2023-01-15T22:31:53.635Z,1.50
2023-01-15T22:34:21.521Z,3.03
2023-01-15T22:36:49.588Z,1.42
2023-01-15T22:39:16.280Z,2.80
2023-01-15T22:42:01.831Z,0.70
2023-01-15T22:44:28.664Z,4.22
2023-01-15T22:46:55.106Z,2.42
2023-01-15T22:49:22.058Z,0.52
2023-01-15T22:51:49.814Z,1.15
2023-01-15T22:54:18.756Z,1.17
2023-01-15T22:56:46.887Z,1.98
2023-01-15T22:59:15.168Z,0.40
2023-01-15T23:01:42.458Z,1.30
2023-01-15T23:04:20.063Z,1.73
2023-01-15T23:06:47.286Z,1.85
2023-01-15T23:09:13.883Z,1.42
2023-01-15T23:11:41.196Z,1.25
2023-01-15T23:14:10.296Z,0.95
2023-01-15T23:16:36.810Z,0.30
2023-01-15T23:19:03.740Z,1.23
2023-01-15T23:21:30.231Z,1.73
2023-01-15T23:23:58.906Z,2.28
2023-01-15T23:26:28.049Z,1.58
2023-01-15T23:28:54.543Z,1.08
2023-01-15T23:31:21.909Z,1.38
2023-01-15T23:33:48.652Z,0.70
2023-01-15T23:36:15.708Z,1.08
2023-01-15T23:38:43.464Z,1.85
2023-01-15T23:41:16.320Z,1.60
2023-01-15T23:44:02.449Z,1.15
2023-01-15T23:46:35.798Z,1.30
2023-01-15T23:49:05.653Z,2.08
2023-01-15T23:51:32.670Z,3.95
2023-01-15T23:54:00.050Z,3.30
2023-01-15T23:56:27.222Z,0.75
2023-01-15T23:58:54.251Z,1.75
